Sunbury, NC (27979)

1:19 PM EST on February 12, 2016 (GMT -0500)
Silver Springs Rd. | | Change Station
CLOSE
Current Station
Personal Weather Station
Location: Sunbury, NC
Elevation: 39 ft
Nearby Weather Stations
Active Advisory: Winter Weather Advisory

Elev 39 ft 36.43 °N, 76.62 °W | Updated 5 minutes ago

Overcast
Overcast
31.8 °F
Feels Like 27 °F
N
5.3
Wind Variable Wind from ESE

Today
High -- | Low -- °F
--% Chance of Precip.
Yesterday
High -- | Low -- °F
Precip. -- in
Pressure 30.18 in
Visibility 10.0 miles
Clouds Scattered Clouds 4800 ft
Scattered Clouds 6000 ft
Overcast 7000 ft
Windchill 27 °F
Dew Point 14 °F
Humidity 47%
Rainfall 0.00 in
Snow Depth Not available.
6:57 AM 5:43 PM
Waxing Crescent, 22% visible
METAR KSFQ 121755Z AUTO 11004KT 10SM SCT048 SCT060 OVC070 00/M11 A3018 RMK AO2 LTG DSNT S T00001110 10000 21073
Pressure 30.18 in
Visibility 10.0 miles
Clouds Scattered Clouds 4800 ft
Scattered Clouds 6000 ft
Overcast 7000 ft
Windchill 27 °F
Dew Point 14 °F
Humidity 47%
Rainfall 0.00 in
Snow Depth Not available.
6:57 AM 5:43 PM
Waxing Crescent, 22% visible
METAR KSFQ 121755Z AUTO 11004KT 10SM SCT048 SCT060 OVC070 00/M11 A3018 RMK AO2 LTG DSNT S T00001110 10000 21073

10-Day Weather Forecast

Almanac

Astronomy

Feb. 12, 2016 Rise Set
Actual Time
Civil Twilight
Nautical Twilight
Astronomical Twilight
Moon
Length of Visible Light
Length of Day
Tomorrow will be .
, % of the Moon is Illuminated

Today's Extremes

State Highs State Lows

Community

WunderPhotos

Upload Photos

1,892,359 photos uploaded!

WunderBlog® & News

Nearby

Air Quality

  Air Quality AQ Index Pollutant
Not available.

Snow Depth

Station Depth Elevation

Earthquake Activity

City Distance Mag. Time & Date
Minimum magnitude displayed is 2.5.

Coastal Water Temperatures

Place Temperature

Stations

Nearby Weather Stations

Station Location Temp. Windchill Dew Point Humidity Wind Precip. Elev Updated Type
                   

Watches & Warnings

Winter Weather Advisory
Issued: 9:20 AM EST Feb. 12, 2016 – National Weather Service

... Winter Weather Advisory remains in effect until midnight EST
tonight...

* areas affected: southeast Virginia... including the lower
peninsula and lower Eastern Shore and portions of interior
northeast North Carolina.

* Hazards: snow.

* Accumulations: 1 to 3 inches.

* Temperatures: low to mid 30s today... falling into the low to
mid 20s tonight.

* Timing: snow will overspread the area around noon and continue
through this evening... impacting the evening commute.

* Impacts: roads will become snow covered and hazardous. Travel
will be impacted Friday.

Precautionary/preparedness actions...

A Winter Weather Advisory for snow means that periods of snow
will cause primarily travel difficulties. Be prepared for snow
covered roads and limited visibilities... and use caution while
driving.



Minnick